sensor_id;sensor_type;location;lat;lon;timestamp;P1;durP1;ratioP1;P2;durP2;ratioP2
18997;SDS011;9632;51.018;4.284;2024-01-25T00:00:20;58.28;;;7.35;;
18997;SDS011;9632;51.018;4.284;2024-01-25T00:02:46;41.58;;;6.18;;
18997;SDS011;9632;51.018;4.284;2024-01-25T00:05:11;44.55;;;6.13;;
18997;SDS011;9632;51.018;4.284;2024-01-25T00:07:47;45.40;;;6.97;;
18997;SDS011;9632;51.018;4.284;2024-01-25T00:10:13;42.35;;;5.95;;
18997;SDS011;9632;51.018;4.284;2024-01-25T00:12:40;57.30;;;7.55;;
18997;SDS011;9632;51.018;4.284;2024-01-25T00:15:06;58.70;;;7.18;;
18997;SDS011;9632;51.018;4.284;2024-01-25T00:17:32;52.70;;;7.50;;
18997;SDS011;9632;51.018;4.284;2024-01-25T00:19:57;44.25;;;6.80;;
18997;SDS011;9632;51.018;4.284;2024-01-25T00:22:23;51.65;;;7.00;;
18997;SDS011;9632;51.018;4.284;2024-01-25T00:24:49;47.92;;;6.68;;
18997;SDS011;9632;51.018;4.284;2024-01-25T00:27:14;49.42;;;6.43;;
18997;SDS011;9632;51.018;4.284;2024-01-25T00:29:40;45.92;;;6.00;;
18997;SDS011;9632;51.018;4.284;2024-01-25T00:32:06;39.22;;;5.82;;
18997;SDS011;9632;51.018;4.284;2024-01-25T00:34:32;56.53;;;8.25;;
18997;SDS011;9632;51.018;4.284;2024-01-25T00:36:58;50.03;;;7.18;;
18997;SDS011;9632;51.018;4.284;2024-01-25T00:39:23;54.83;;;7.53;;
18997;SDS011;9632;51.018;4.284;2024-01-25T00:41:50;54.42;;;6.80;;
18997;SDS011;9632;51.018;4.284;2024-01-25T00:44:17;46.38;;;6.88;;
18997;SDS011;9632;51.018;4.284;2024-01-25T00:46:43;48.30;;;6.28;;
18997;SDS011;9632;51.018;4.284;2024-01-25T00:49:11;41.08;;;6.47;;
18997;SDS011;9632;51.018;4.284;2024-01-25T00:51:38;42.40;;;5.80;;
18997;SDS011;9632;51.018;4.284;2024-01-25T00:54:08;42.75;;;6.22;;
18997;SDS011;9632;51.018;4.284;2024-01-25T00:56:34;42.70;;;6.55;;
18997;SDS011;9632;51.018;4.284;2024-01-25T00:59:00;55.50;;;7.40;;
18997;SDS011;9632;51.018;4.284;2024-01-25T01:01:26;52.88;;;7.13;;
18997;SDS011;9632;51.018;4.284;2024-01-25T01:03:52;38.63;;;7.07;;
18997;SDS011;9632;51.018;4.284;2024-01-25T01:06:20;42.05;;;5.60;;
18997;SDS011;9632;51.018;4.284;2024-01-25T01:08:46;34.58;;;5.85;;
18997;SDS011;9632;51.018;4.284;2024-01-25T01:11:12;47.72;;;6.65;;
18997;SDS011;9632;51.018;4.284;2024-01-25T01:13:38;42.15;;;6.25;;
18997;SDS011;9632;51.018;4.284;2024-01-25T01:16:03;40.00;;;6.63;;
18997;SDS011;9632;51.018;4.284;2024-01-25T01:18:29;39.63;;;6.45;;
18997;SDS011;9632;51.018;4.284;2024-01-25T01:20:55;53.88;;;7.30;;
18997;SDS011;9632;51.018;4.284;2024-01-25T01:23:20;39.75;;;6.00;;
18997;SDS011;9632;51.018;4.284;2024-01-25T01:25:46;41.83;;;5.78;;
18997;SDS011;9632;51.018;4.284;2024-01-25T01:28:12;38.55;;;6.57;;
18997;SDS011;9632;51.018;4.284;2024-01-25T01:30:37;41.17;;;5.85;;
18997;SDS011;9632;51.018;4.284;2024-01-25T01:33:06;37.58;;;6.18;;
18997;SDS011;9632;51.018;4.284;2024-01-25T01:35:35;48.63;;;6.63;;
18997;SDS011;9632;51.018;4.284;2024-01-25T01:38:01;47.38;;;6.50;;
18997;SDS011;9632;51.018;4.284;2024-01-25T01:40:26;61.90;;;7.00;;
18997;SDS011;9632;51.018;4.284;2024-01-25T01:42:58;48.55;;;6.35;;
18997;SDS011;9632;51.018;4.284;2024-01-25T01:45:24;47.58;;;7.15;;
18997;SDS011;9632;51.018;4.284;2024-01-25T01:47:50;63.70;;;7.13;;
18997;SDS011;9632;51.018;4.284;2024-01-25T01:50:15;31.73;;;5.28;;
18997;SDS011;9632;51.018;4.284;2024-01-25T01:52:41;56.38;;;7.22;;
18997;SDS011;9632;51.018;4.284;2024-01-25T01:55:07;40.33;;;5.80;;
18997;SDS011;9632;51.018;4.284;2024-01-25T01:57:34;37.75;;;5.97;;
18997;SDS011;9632;51.018;4.284;2024-01-25T02:00:00;39.30;;;5.13;;
18997;SDS011;9632;51.018;4.284;2024-01-25T02:02:29;39.45;;;5.72;;
18997;SDS011;9632;51.018;4.284;2024-01-25T02:04:55;39.20;;;6.22;;
18997;SDS011;9632;51.018;4.284;2024-01-25T02:07:21;38.47;;;5.07;;
18997;SDS011;9632;51.018;4.284;2024-01-25T02:09:47;51.35;;;6.63;;
18997;SDS011;9632;51.018;4.284;2024-01-25T02:12:15;46.05;;;6.07;;
18997;SDS011;9632;51.018;4.284;2024-01-25T02:14:42;41.88;;;6.10;;
18997;SDS011;9632;51.018;4.284;2024-01-25T02:17:08;47.58;;;6.35;;
18997;SDS011;9632;51.018;4.284;2024-01-25T02:19:33;36.33;;;5.43;;
18997;SDS011;9632;51.018;4.284;2024-01-25T02:21:59;46.20;;;6.22;;
18997;SDS011;9632;51.018;4.284;2024-01-25T02:24:29;32.97;;;5.13;;
18997;SDS011;9632;51.018;4.284;2024-01-25T02:26:55;38.22;;;5.95;;
18997;SDS011;9632;51.018;4.284;2024-01-25T02:29:20;33.92;;;4.90;;
18997;SDS011;9632;51.018;4.284;2024-01-25T02:31:46;36.97;;;5.35;;
18997;SDS011;9632;51.018;4.284;2024-01-25T02:34:12;37.00;;;5.00;;
18997;SDS011;9632;51.018;4.284;2024-01-25T02:36:37;30.65;;;5.00;;
18997;SDS011;9632;51.018;4.284;2024-01-25T02:39:03;31.05;;;4.80;;
18997;SDS011;9632;51.018;4.284;2024-01-25T02:41:30;37.17;;;5.00;;
18997;SDS011;9632;51.018;4.284;2024-01-25T02:43:56;35.08;;;4.80;;
18997;SDS011;9632;51.018;4.284;2024-01-25T02:46:22;32.53;;;5.45;;
18997;SDS011;9632;51.018;4.284;2024-01-25T02:48:47;27.60;;;4.50;;
18997;SDS011;9632;51.018;4.284;2024-01-25T02:51:13;27.73;;;4.65;;
18997;SDS011;9632;51.018;4.284;2024-01-25T02:53:39;33.15;;;5.15;;
18997;SDS011;9632;51.018;4.284;2024-01-25T02:56:05;29.75;;;4.72;;
18997;SDS011;9632;51.018;4.284;2024-01-25T02:58:32;30.08;;;4.38;;
18997;SDS011;9632;51.018;4.284;2024-01-25T03:00:57;31.20;;;5.40;;
18997;SDS011;9632;51.018;4.284;2024-01-25T03:03:23;31.05;;;4.57;;
18997;SDS011;9632;51.018;4.284;2024-01-25T03:05:49;30.38;;;4.90;;
18997;SDS011;9632;51.018;4.284;2024-01-25T03:08:16;26.92;;;4.35;;
18997;SDS011;9632;51.018;4.284;2024-01-25T03:10:41;28.05;;;4.82;;
18997;SDS011;9632;51.018;4.284;2024-01-25T03:13:07;32.20;;;5.55;;
18997;SDS011;9632;51.018;4.284;2024-01-25T03:15:33;28.10;;;5.15;;
18997;SDS011;9632;51.018;4.284;2024-01-25T03:17:58;25.08;;;4.13;;
18997;SDS011;9632;51.018;4.284;2024-01-25T03:20:24;29.27;;;4.25;;
18997;SDS011;9632;51.018;4.284;2024-01-25T03:22:50;25.42;;;4.20;;
18997;SDS011;9632;51.018;4.284;2024-01-25T03:25:15;26.85;;;4.70;;
18997;SDS011;9632;51.018;4.284;2024-01-25T03:27:41;27.45;;;4.47;;
18997;SDS011;9632;51.018;4.284;2024-01-25T03:30:07;25.33;;;3.88;;
18997;SDS011;9632;51.018;4.284;2024-01-25T03:32:33;17.50;;;3.30;;
18997;SDS011;9632;51.018;4.284;2024-01-25T03:34:59;23.23;;;3.53;;
18997;SDS011;9632;51.018;4.284;2024-01-25T03:37:25;23.48;;;3.42;;
18997;SDS011;9632;51.018;4.284;2024-01-25T03:39:51;23.38;;;4.03;;
18997;SDS011;9632;51.018;4.284;2024-01-25T03:42:16;19.65;;;3.50;;
18997;SDS011;9632;51.018;4.284;2024-01-25T03:44:42;24.77;;;3.90;;
18997;SDS011;9632;51.018;4.284;2024-01-25T03:47:09;21.98;;;3.92;;
18997;SDS011;9632;51.018;4.284;2024-01-25T03:49:35;29.80;;;4.22;;
18997;SDS011;9632;51.018;4.284;2024-01-25T03:52:02;27.58;;;4.93;;
18997;SDS011;9632;51.018;4.284;2024-01-25T03:54:28;24.17;;;4.40;;
18997;SDS011;9632;51.018;4.284;2024-01-25T03:56:54;27.17;;;4.47;;
18997;SDS011;9632;51.018;4.284;2024-01-25T03:59:19;25.60;;;4.72;;
18997;SDS011;9632;51.018;4.284;2024-01-25T04:01:45;29.52;;;4.38;;
18997;SDS011;9632;51.018;4.284;2024-01-25T04:04:14;28.55;;;4.63;;
18997;SDS011;9632;51.018;4.284;2024-01-25T04:06:43;27.58;;;3.95;;
18997;SDS011;9632;51.018;4.284;2024-01-25T04:09:12;22.55;;;4.25;;
18997;SDS011;9632;51.018;4.284;2024-01-25T04:11:39;25.42;;;4.20;;
18997;SDS011;9632;51.018;4.284;2024-01-25T04:14:05;25.30;;;4.00;;
18997;SDS011;9632;51.018;4.284;2024-01-25T04:16:31;25.05;;;4.53;;
18997;SDS011;9632;51.018;4.284;2024-01-25T04:18:58;17.98;;;3.15;;
18997;SDS011;9632;51.018;4.284;2024-01-25T04:21:23;22.73;;;4.13;;
18997;SDS011;9632;51.018;4.284;2024-01-25T04:23:49;31.60;;;4.22;;
18997;SDS011;9632;51.018;4.284;2024-01-25T04:26:15;21.50;;;3.90;;
18997;SDS011;9632;51.018;4.284;2024-01-25T04:28:43;21.85;;;3.80;;
18997;SDS011;9632;51.018;4.284;2024-01-25T04:31:09;22.40;;;3.97;;
18997;SDS011;9632;51.018;4.284;2024-01-25T04:33:35;23.02;;;4.13;;
18997;SDS011;9632;51.018;4.284;2024-01-25T04:36:00;24.77;;;4.40;;
18997;SDS011;9632;51.018;4.284;2024-01-25T04:38:26;27.08;;;4.32;;
18997;SDS011;9632;51.018;4.284;2024-01-25T04:40:52;31.83;;;4.78;;
18997;SDS011;9632;51.018;4.284;2024-01-25T04:43:17;22.85;;;4.07;;
18997;SDS011;9632;51.018;4.284;2024-01-25T04:45:43;23.77;;;3.83;;
18997;SDS011;9632;51.018;4.284;2024-01-25T04:48:09;25.63;;;3.88;;
18997;SDS011;9632;51.018;4.284;2024-01-25T04:50:34;24.52;;;4.25;;
18997;SDS011;9632;51.018;4.284;2024-01-25T04:53:03;27.00;;;3.67;;
18997;SDS011;9632;51.018;4.284;2024-01-25T04:55:29;23.95;;;3.83;;
18997;SDS011;9632;51.018;4.284;2024-01-25T04:57:54;27.88;;;4.28;;
18997;SDS011;9632;51.018;4.284;2024-01-25T05:00:21;24.48;;;3.95;;
18997;SDS011;9632;51.018;4.284;2024-01-25T05:02:47;28.15;;;4.50;;
18997;SDS011;9632;51.018;4.284;2024-01-25T05:05:13;27.48;;;4.63;;
18997;SDS011;9632;51.018;4.284;2024-01-25T05:07:39;28.10;;;4.50;;
18997;SDS011;9632;51.018;4.284;2024-01-25T05:10:05;27.83;;;4.18;;
18997;SDS011;9632;51.018;4.284;2024-01-25T05:12:31;27.15;;;3.55;;
18997;SDS011;9632;51.018;4.284;2024-01-25T05:14:57;25.45;;;4.45;;
18997;SDS011;9632;51.018;4.284;2024-01-25T05:17:23;20.77;;;3.53;;
18997;SDS011;9632;51.018;4.284;2024-01-25T05:19:49;29.10;;;3.70;;
18997;SDS011;9632;51.018;4.284;2024-01-25T05:22:14;21.48;;;3.70;;
18997;SDS011;9632;51.018;4.284;2024-01-25T05:24:41;20.85;;;3.95;;
18997;SDS011;9632;51.018;4.284;2024-01-25T05:27:07;17.55;;;3.60;;
18997;SDS011;9632;51.018;4.284;2024-01-25T05:29:32;18.08;;;3.40;;
18997;SDS011;9632;51.018;4.284;2024-01-25T05:31:58;20.52;;;3.38;;
18997;SDS011;9632;51.018;4.284;2024-01-25T05:34:24;19.80;;;3.42;;
18997;SDS011;9632;51.018;4.284;2024-01-25T05:36:50;16.15;;;2.92;;
18997;SDS011;9632;51.018;4.284;2024-01-25T05:39:15;20.88;;;3.17;;
18997;SDS011;9632;51.018;4.284;2024-01-25T05:41:42;20.63;;;4.05;;
18997;SDS011;9632;51.018;4.284;2024-01-25T05:44:10;17.65;;;3.35;;
18997;SDS011;9632;51.018;4.284;2024-01-25T05:46:36;27.52;;;5.50;;
18997;SDS011;9632;51.018;4.284;2024-01-25T05:49:02;27.98;;;4.20;;
18997;SDS011;9632;51.018;4.284;2024-01-25T05:51:27;24.17;;;4.03;;
18997;SDS011;9632;51.018;4.284;2024-01-25T05:53:53;26.13;;;3.72;;
18997;SDS011;9632;51.018;4.284;2024-01-25T05:56:19;19.35;;;3.67;;
18997;SDS011;9632;51.018;4.284;2024-01-25T05:58:44;21.55;;;4.05;;
18997;SDS011;9632;51.018;4.284;2024-01-25T06:01:10;30.35;;;4.60;;
18997;SDS011;9632;51.018;4.284;2024-01-25T06:03:36;25.52;;;4.63;;
18997;SDS011;9632;51.018;4.284;2024-01-25T06:06:01;31.15;;;4.00;;
18997;SDS011;9632;51.018;4.284;2024-01-25T06:08:27;26.73;;;4.72;;
18997;SDS011;9632;51.018;4.284;2024-01-25T06:10:53;26.83;;;3.78;;
18997;SDS011;9632;51.018;4.284;2024-01-25T06:13:19;20.27;;;4.03;;
18997;SDS011;9632;51.018;4.284;2024-01-25T06:15:44;25.27;;;4.03;;
18997;SDS011;9632;51.018;4.284;2024-01-25T06:18:10;24.70;;;3.85;;
18997;SDS011;9632;51.018;4.284;2024-01-25T06:20:35;19.80;;;3.28;;
18997;SDS011;9632;51.018;4.284;2024-01-25T06:23:01;26.20;;;3.97;;
18997;SDS011;9632;51.018;4.284;2024-01-25T06:25:27;26.30;;;4.13;;
18997;SDS011;9632;51.018;4.284;2024-01-25T06:27:56;27.10;;;4.50;;
18997;SDS011;9632;51.018;4.284;2024-01-25T06:30:22;30.17;;;4.43;;
18997;SDS011;9632;51.018;4.284;2024-01-25T06:32:48;31.10;;;4.65;;
18997;SDS011;9632;51.018;4.284;2024-01-25T06:35:14;24.13;;;4.15;;
18997;SDS011;9632;51.018;4.284;2024-01-25T06:37:40;22.88;;;3.70;;
18997;SDS011;9632;51.018;4.284;2024-01-25T06:40:06;25.40;;;4.47;;
18997;SDS011;9632;51.018;4.284;2024-01-25T06:42:32;22.65;;;4.40;;
18997;SDS011;9632;51.018;4.284;2024-01-25T06:44:57;29.23;;;5.38;;
18997;SDS011;9632;51.018;4.284;2024-01-25T06:47:23;31.85;;;5.40;;
18997;SDS011;9632;51.018;4.284;2024-01-25T06:49:49;29.40;;;5.15;;
18997;SDS011;9632;51.018;4.284;2024-01-25T06:52:16;29.55;;;5.03;;
18997;SDS011;9632;51.018;4.284;2024-01-25T06:54:43;25.02;;;4.45;;
18997;SDS011;9632;51.018;4.284;2024-01-25T06:57:08;18.88;;;3.35;;
18997;SDS011;9632;51.018;4.284;2024-01-25T06:59:34;25.83;;;3.75;;
18997;SDS011;9632;51.018;4.284;2024-01-25T07:01:59;29.08;;;4.35;;
18997;SDS011;9632;51.018;4.284;2024-01-25T07:04:27;28.90;;;4.60;;
18997;SDS011;9632;51.018;4.284;2024-01-25T07:06:53;27.75;;;5.18;;
18997;SDS011;9632;51.018;4.284;2024-01-25T07:09:19;32.30;;;5.78;;
18997;SDS011;9632;51.018;4.284;2024-01-25T07:11:45;34.03;;;4.97;;
18997;SDS011;9632;51.018;4.284;2024-01-25T07:14:10;31.10;;;4.97;;
18997;SDS011;9632;51.018;4.284;2024-01-25T07:16:37;29.17;;;4.68;;
18997;SDS011;9632;51.018;4.284;2024-01-25T07:19:02;27.63;;;4.85;;
18997;SDS011;9632;51.018;4.284;2024-01-25T07:21:28;34.72;;;5.70;;
18997;SDS011;9632;51.018;4.284;2024-01-25T07:23:58;33.97;;;6.55;;
18997;SDS011;9632;51.018;4.284;2024-01-25T07:26:26;40.78;;;6.88;;
18997;SDS011;9632;51.018;4.284;2024-01-25T07:28:51;33.10;;;6.82;;
18997;SDS011;9632;51.018;4.284;2024-01-25T07:31:22;32.83;;;7.55;;
18997;SDS011;9632;51.018;4.284;2024-01-25T07:33:52;41.83;;;7.40;;
18997;SDS011;9632;51.018;4.284;2024-01-25T07:36:18;66.22;;;13.05;;
18997;SDS011;9632;51.018;4.284;2024-01-25T07:38:43;64.75;;;13.48;;
18997;SDS011;9632;51.018;4.284;2024-01-25T07:41:12;51.88;;;10.45;;
18997;SDS011;9632;51.018;4.284;2024-01-25T07:43:37;58.30;;;14.25;;
18997;SDS011;9632;51.018;4.284;2024-01-25T07:46:03;54.97;;;12.60;;
18997;SDS011;9632;51.018;4.284;2024-01-25T07:48:29;45.30;;;10.88;;
18997;SDS011;9632;51.018;4.284;2024-01-25T07:50:55;47.85;;;9.27;;
18997;SDS011;9632;51.018;4.284;2024-01-25T07:53:21;42.67;;;8.50;;
18997;SDS011;9632;51.018;4.284;2024-01-25T07:55:47;52.22;;;12.50;;
18997;SDS011;9632;51.018;4.284;2024-01-25T07:58:14;53.92;;;13.35;;
18997;SDS011;9632;51.018;4.284;2024-01-25T08:00:40;50.60;;;12.05;;
18997;SDS011;9632;51.018;4.284;2024-01-25T08:03:07;53.60;;;9.85;;
18997;SDS011;9632;51.018;4.284;2024-01-25T08:05:33;46.72;;;10.38;;
18997;SDS011;9632;51.018;4.284;2024-01-25T08:07:58;33.63;;;9.05;;
18997;SDS011;9632;51.018;4.284;2024-01-25T08:10:24;31.85;;;8.73;;
18997;SDS011;9632;51.018;4.284;2024-01-25T08:12:50;37.00;;;9.73;;
18997;SDS011;9632;51.018;4.284;2024-01-25T08:15:16;25.75;;;8.48;;
18997;SDS011;9632;51.018;4.284;2024-01-25T08:17:42;40.35;;;11.38;;
18997;SDS011;9632;51.018;4.284;2024-01-25T08:20:08;28.05;;;9.25;;
18997;SDS011;9632;51.018;4.284;2024-01-25T08:22:35;35.28;;;9.68;;
18997;SDS011;9632;51.018;4.284;2024-01-25T08:25:01;20.48;;;8.30;;
18997;SDS011;9632;51.018;4.284;2024-01-25T08:27:27;25.40;;;9.98;;
18997;SDS011;9632;51.018;4.284;2024-01-25T08:29:52;32.95;;;9.88;;
18997;SDS011;9632;51.018;4.284;2024-01-25T08:32:18;24.00;;;8.68;;
18997;SDS011;9632;51.018;4.284;2024-01-25T08:34:44;55.42;;;12.35;;
18997;SDS011;9632;51.018;4.284;2024-01-25T08:37:09;35.28;;;10.02;;
18997;SDS011;9632;51.018;4.284;2024-01-25T08:39:35;41.67;;;9.77;;
18997;SDS011;9632;51.018;4.284;2024-01-25T08:42:01;29.30;;;8.90;;
18997;SDS011;9632;51.018;4.284;2024-01-25T08:44:28;23.83;;;7.90;;
18997;SDS011;9632;51.018;4.284;2024-01-25T08:46:54;20.75;;;8.52;;
18997;SDS011;9632;51.018;4.284;2024-01-25T08:49:20;27.83;;;9.50;;
18997;SDS011;9632;51.018;4.284;2024-01-25T08:51:45;22.95;;;9.50;;
18997;SDS011;9632;51.018;4.284;2024-01-25T08:54:11;58.90;;;16.02;;
18997;SDS011;9632;51.018;4.284;2024-01-25T08:56:36;40.10;;;11.68;;
18997;SDS011;9632;51.018;4.284;2024-01-25T08:59:02;38.45;;;11.13;;
18997;SDS011;9632;51.018;4.284;2024-01-25T09:01:28;30.90;;;11.20;;
18997;SDS011;9632;51.018;4.284;2024-01-25T09:03:53;31.13;;;12.23;;
18997;SDS011;9632;51.018;4.284;2024-01-25T09:06:19;23.05;;;10.60;;
18997;SDS011;9632;51.018;4.284;2024-01-25T09:08:45;25.67;;;10.18;;
18997;SDS011;9632;51.018;4.284;2024-01-25T09:11:10;31.20;;;12.15;;
18997;SDS011;9632;51.018;4.284;2024-01-25T09:13:36;31.17;;;14.00;;
18997;SDS011;9632;51.018;4.284;2024-01-25T09:16:02;28.80;;;12.90;;
18997;SDS011;9632;51.018;4.284;2024-01-25T09:18:28;40.00;;;12.50;;
18997;SDS011;9632;51.018;4.284;2024-01-25T09:20:53;33.10;;;13.07;;
18997;SDS011;9632;51.018;4.284;2024-01-25T09:23:19;32.20;;;14.10;;
18997;SDS011;9632;51.018;4.284;2024-01-25T09:25:45;31.40;;;12.40;;
18997;SDS011;9632;51.018;4.284;2024-01-25T09:28:11;33.88;;;12.00;;
18997;SDS011;9632;51.018;4.284;2024-01-25T09:30:39;30.50;;;11.65;;
18997;SDS011;9632;51.018;4.284;2024-01-25T09:33:06;23.58;;;10.82;;
18997;SDS011;9632;51.018;4.284;2024-01-25T09:35:32;42.20;;;14.85;;
18997;SDS011;9632;51.018;4.284;2024-01-25T09:37:58;31.85;;;12.40;;
18997;SDS011;9632;51.018;4.284;2024-01-25T09:40:23;33.97;;;13.40;;
18997;SDS011;9632;51.018;4.284;2024-01-25T09:42:49;34.55;;;12.52;;
18997;SDS011;9632;51.018;4.284;2024-01-25T09:45:17;36.00;;;12.77;;
18997;SDS011;9632;51.018;4.284;2024-01-25T09:47:47;44.63;;;14.05;;
18997;SDS011;9632;51.018;4.284;2024-01-25T09:50:13;41.70;;;14.20;;
18997;SDS011;9632;51.018;4.284;2024-01-25T09:52:39;44.10;;;12.50;;
18997;SDS011;9632;51.018;4.284;2024-01-25T09:55:08;34.92;;;13.18;;
18997;SDS011;9632;51.018;4.284;2024-01-25T09:57:40;39.40;;;13.52;;
18997;SDS011;9632;51.018;4.284;2024-01-25T10:00:09;49.50;;;16.27;;
18997;SDS011;9632;51.018;4.284;2024-01-25T10:02:37;54.67;;;14.98;;
18997;SDS011;9632;51.018;4.284;2024-01-25T10:05:03;58.75;;;15.48;;
18997;SDS011;9632;51.018;4.284;2024-01-25T10:07:36;40.38;;;13.63;;
18997;SDS011;9632;51.018;4.284;2024-01-25T10:10:03;38.15;;;12.73;;
18997;SDS011;9632;51.018;4.284;2024-01-25T10:12:30;59.65;;;16.75;;
18997;SDS011;9632;51.018;4.284;2024-01-25T10:14:56;61.55;;;16.02;;
18997;SDS011;9632;51.018;4.284;2024-01-25T10:17:22;66.60;;;15.75;;
18997;SDS011;9632;51.018;4.284;2024-01-25T10:19:48;76.53;;;18.52;;
18997;SDS011;9632;51.018;4.284;2024-01-25T10:22:14;65.63;;;18.30;;
18997;SDS011;9632;51.018;4.284;2024-01-25T10:24:39;65.90;;;20.05;;
18997;SDS011;9632;51.018;4.284;2024-01-25T10:27:07;70.80;;;18.70;;
18997;SDS011;9632;51.018;4.284;2024-01-25T10:29:36;67.90;;;15.90;;
18997;SDS011;9632;51.018;4.284;2024-01-25T10:32:05;64.95;;;16.10;;
18997;SDS011;9632;51.018;4.284;2024-01-25T10:34:33;73.03;;;15.38;;
18997;SDS011;9632;51.018;4.284;2024-01-25T10:37:01;61.40;;;16.08;;
18997;SDS011;9632;51.018;4.284;2024-01-25T10:39:31;66.30;;;15.40;;
18997;SDS011;9632;51.018;4.284;2024-01-25T10:41:58;78.43;;;16.08;;
18997;SDS011;9632;51.018;4.284;2024-01-25T10:44:24;66.35;;;15.73;;
18997;SDS011;9632;51.018;4.284;2024-01-25T10:46:50;63.67;;;17.15;;
18997;SDS011;9632;51.018;4.284;2024-01-25T10:49:16;70.57;;;16.92;;
18997;SDS011;9632;51.018;4.284;2024-01-25T10:51:43;61.20;;;15.00;;
18997;SDS011;9632;51.018;4.284;2024-01-25T10:54:13;67.93;;;17.08;;
18997;SDS011;9632;51.018;4.284;2024-01-25T10:56:43;73.28;;;17.25;;
18997;SDS011;9632;51.018;4.284;2024-01-25T10:59:11;55.17;;;16.27;;
18997;SDS011;9632;51.018;4.284;2024-01-25T11:01:37;62.22;;;15.55;;
18997;SDS011;9632;51.018;4.284;2024-01-25T11:04:03;73.97;;;16.27;;
18997;SDS011;9632;51.018;4.284;2024-01-25T11:06:37;60.47;;;15.20;;
18997;SDS011;9632;51.018;4.284;2024-01-25T11:09:06;65.93;;;15.25;;
18997;SDS011;9632;51.018;4.284;2024-01-25T11:11:32;55.00;;;13.43;;
18997;SDS011;9632;51.018;4.284;2024-01-25T11:13:58;68.20;;;15.85;;
18997;SDS011;9632;51.018;4.284;2024-01-25T11:16:31;63.63;;;14.85;;
18997;SDS011;9632;51.018;4.284;2024-01-25T11:19:00;73.63;;;14.85;;
18997;SDS011;9632;51.018;4.284;2024-01-25T11:26:45;52.17;;;14.32;;
18997;SDS011;9632;51.018;4.284;2024-01-25T11:29:20;62.35;;;14.88;;
18997;SDS011;9632;51.018;4.284;2024-01-25T11:31:51;66.30;;;14.20;;
18997;SDS011;9632;51.018;4.284;2024-01-25T11:34:17;77.78;;;16.50;;
18997;SDS011;9632;51.018;4.284;2024-01-25T11:36:43;73.28;;;16.30;;
18997;SDS011;9632;51.018;4.284;2024-01-25T11:39:10;85.72;;;16.60;;
18997;SDS011;9632;51.018;4.284;2024-01-25T11:41:37;66.97;;;15.45;;
18997;SDS011;9632;51.018;4.284;2024-01-25T11:44:03;66.57;;;16.73;;
18997;SDS011;9632;51.018;4.284;2024-01-25T11:46:30;70.63;;;16.83;;
18997;SDS011;9632;51.018;4.284;2024-01-25T11:48:57;69.10;;;17.05;;
18997;SDS011;9632;51.018;4.284;2024-01-25T11:51:23;68.65;;;16.10;;
18997;SDS011;9632;51.018;4.284;2024-01-25T11:53:49;66.57;;;16.30;;
18997;SDS011;9632;51.018;4.284;2024-01-25T11:56:16;59.72;;;15.40;;
18997;SDS011;9632;51.018;4.284;2024-01-25T11:58:48;63.22;;;15.20;;
18997;SDS011;9632;51.018;4.284;2024-01-25T12:01:14;56.85;;;15.13;;
18997;SDS011;9632;51.018;4.284;2024-01-25T12:03:41;54.97;;;15.55;;
18997;SDS011;9632;51.018;4.284;2024-01-25T12:06:06;55.15;;;16.58;;
18997;SDS011;9632;51.018;4.284;2024-01-25T12:08:34;52.17;;;13.85;;
18997;SDS011;9632;51.018;4.284;2024-01-25T12:11:04;50.83;;;14.15;;
18997;SDS011;9632;51.018;4.284;2024-01-25T12:13:49;52.95;;;14.05;;
18997;SDS011;9632;51.018;4.284;2024-01-25T12:16:14;44.67;;;14.07;;
18997;SDS011;9632;51.018;4.284;2024-01-25T12:18:40;49.20;;;14.02;;
18997;SDS011;9632;51.018;4.284;2024-01-25T12:21:08;51.95;;;12.45;;
18997;SDS011;9632;51.018;4.284;2024-01-25T12:23:34;53.80;;;13.90;;
18997;SDS011;9632;51.018;4.284;2024-01-25T12:26:04;58.03;;;15.05;;
18997;SDS011;9632;51.018;4.284;2024-01-25T12:28:31;51.25;;;12.48;;
18997;SDS011;9632;51.018;4.284;2024-01-25T12:31:00;53.40;;;12.82;;
18997;SDS011;9632;51.018;4.284;2024-01-25T12:33:29;51.38;;;11.40;;
18997;SDS011;9632;51.018;4.284;2024-01-25T12:35:55;43.58;;;10.30;;
18997;SDS011;9632;51.018;4.284;2024-01-25T12:38:21;41.35;;;10.38;;
18997;SDS011;9632;51.018;4.284;2024-01-25T12:40:48;57.10;;;12.57;;
18997;SDS011;9632;51.018;4.284;2024-01-25T12:43:15;63.28;;;11.93;;
18997;SDS011;9632;51.018;4.284;2024-01-25T12:45:41;45.45;;;9.25;;
18997;SDS011;9632;51.018;4.284;2024-01-25T12:48:08;45.75;;;9.57;;
18997;SDS011;9632;51.018;4.284;2024-01-25T12:50:34;34.40;;;7.80;;
18997;SDS011;9632;51.018;4.284;2024-01-25T12:53:01;34.70;;;8.38;;
18997;SDS011;9632;51.018;4.284;2024-01-25T12:55:30;24.65;;;6.93;;
18997;SDS011;9632;51.018;4.284;2024-01-25T12:57:56;31.40;;;7.55;;
18997;SDS011;9632;51.018;4.284;2024-01-25T13:00:23;29.50;;;8.05;;
18997;SDS011;9632;51.018;4.284;2024-01-25T13:02:49;40.42;;;9.13;;
18997;SDS011;9632;51.018;4.284;2024-01-25T13:05:15;37.17;;;9.85;;
18997;SDS011;9632;51.018;4.284;2024-01-25T13:07:41;29.95;;;7.65;;
18997;SDS011;9632;51.018;4.284;2024-01-25T13:10:08;27.83;;;7.25;;
18997;SDS011;9632;51.018;4.284;2024-01-25T13:12:34;31.90;;;8.90;;
18997;SDS011;9632;51.018;4.284;2024-01-25T13:14:59;29.90;;;7.47;;
18997;SDS011;9632;51.018;4.284;2024-01-25T13:17:25;30.08;;;7.90;;
18997;SDS011;9632;51.018;4.284;2024-01-25T13:19:52;23.85;;;6.93;;
18997;SDS011;9632;51.018;4.284;2024-01-25T13:22:18;19.15;;;6.20;;
18997;SDS011;9632;51.018;4.284;2024-01-25T13:24:46;29.65;;;7.70;;
18997;SDS011;9632;51.018;4.284;2024-01-25T13:27:12;20.65;;;6.60;;
18997;SDS011;9632;51.018;4.284;2024-01-25T13:29:37;19.13;;;6.20;;
18997;SDS011;9632;51.018;4.284;2024-01-25T13:32:03;22.23;;;7.22;;
18997;SDS011;9632;51.018;4.284;2024-01-25T13:34:29;26.15;;;8.13;;
18997;SDS011;9632;51.018;4.284;2024-01-25T13:36:54;22.80;;;7.97;;
18997;SDS011;9632;51.018;4.284;2024-01-25T13:39:20;24.50;;;7.32;;
18997;SDS011;9632;51.018;4.284;2024-01-25T13:41:46;20.45;;;6.15;;
18997;SDS011;9632;51.018;4.284;2024-01-25T13:44:13;25.98;;;7.88;;
18997;SDS011;9632;51.018;4.284;2024-01-25T13:46:39;23.25;;;7.68;;
18997;SDS011;9632;51.018;4.284;2024-01-25T13:49:05;33.47;;;8.80;;
18997;SDS011;9632;51.018;4.284;2024-01-25T13:51:30;19.10;;;8.00;;
18997;SDS011;9632;51.018;4.284;2024-01-25T13:53:56;20.05;;;6.97;;
18997;SDS011;9632;51.018;4.284;2024-01-25T13:56:22;17.65;;;6.35;;
18997;SDS011;9632;51.018;4.284;2024-01-25T13:58:47;19.65;;;6.88;;
18997;SDS011;9632;51.018;4.284;2024-01-25T14:01:13;21.70;;;7.25;;
18997;SDS011;9632;51.018;4.284;2024-01-25T14:03:39;16.42;;;7.05;;
18997;SDS011;9632;51.018;4.284;2024-01-25T14:06:05;23.63;;;7.90;;
18997;SDS011;9632;51.018;4.284;2024-01-25T14:08:34;17.77;;;7.15;;
18997;SDS011;9632;51.018;4.284;2024-01-25T14:11:03;26.35;;;7.85;;
18997;SDS011;9632;51.018;4.284;2024-01-25T14:13:30;22.80;;;7.53;;
18997;SDS011;9632;51.018;4.284;2024-01-25T14:15:56;20.02;;;8.02;;
18997;SDS011;9632;51.018;4.284;2024-01-25T14:18:23;21.20;;;8.65;;
18997;SDS011;9632;51.018;4.284;2024-01-25T14:20:49;19.33;;;8.05;;
18997;SDS011;9632;51.018;4.284;2024-01-25T14:23:15;18.20;;;8.35;;
18997;SDS011;9632;51.018;4.284;2024-01-25T14:25:41;20.85;;;7.70;;
18997;SDS011;9632;51.018;4.284;2024-01-25T14:28:06;13.63;;;6.93;;
18997;SDS011;9632;51.018;4.284;2024-01-25T14:30:32;20.77;;;7.78;;
18997;SDS011;9632;51.018;4.284;2024-01-25T14:32:57;20.65;;;8.57;;
18997;SDS011;9632;51.018;4.284;2024-01-25T14:35:23;20.73;;;8.30;;
18997;SDS011;9632;51.018;4.284;2024-01-25T14:37:53;16.17;;;7.53;;
18997;SDS011;9632;51.018;4.284;2024-01-25T14:40:20;17.17;;;7.22;;
18997;SDS011;9632;51.018;4.284;2024-01-25T14:42:46;15.75;;;7.30;;